• Join FlightAware (Why Join?)
  • Login
  • US Flag 
01:31PM EDT


 

Airport Tracker/Info


-or-


 

Live Flight TrackerFlight Track Log ✈ N1944E ✈ 16-Oct-2013 ✈ KCOD - KJAC

Flight Track Log - Related Links

Times and Time Zones

All times are in EDT time to prevent confusion due to time zone crossing. See the N1944E flight status page for this flight to view local times or setup timezone preferences in your user account.

Time Position Orientation Groundspeed Altitude Reporting Facility
EDT Latitude Longitude Course Direction KTS MPH feet Rate Location/Type
06:03PM 44.4656 -109.1158 235° Southwest 134 154 10,400  Level Salt Lake Center
06:04PM 44.4458 -109.1708 243° Southwest 131 151 11,500 1,020 Climbing Salt Lake Center
06:05PM 44.4242 -109.2167 237° Southwest 135 155 12,600 960 Climbing Salt Lake Center
06:06PM 44.3978 -109.2600 230° Southwest 142 163 13,600 960 Climbing Salt Lake Center
06:07PM 44.3744 -109.3056 234° Southwest 146 168 14,700 840 Climbing Salt Lake Center
06:08PM 44.3519 -109.3517 236° Southwest 145 167 15,400 660 Climbing Salt Lake Center
06:09PM 44.3532 -109.3449 235° Southwest  Level Estimated
06:09PM 44.3275 -109.3981 234° Southwest 147 169 16,100  Level Salt Lake Center
06:11PM 44.2933 -109.4644 234° Southwest 169 194 16,000 -60 Descending Salt Lake Center
06:12PM 44.2653 -109.5200 235° Southwest 177 204 16,000  Level Salt Lake Center
06:13PM 44.2364 -109.5736 233° Southwest 179 206 16,000 -60 Level Salt Lake Center
06:14PM 44.2044 -109.6333 233° Southwest 174 200 15,900 -60 Descending Salt Lake Center
06:15PM 44.1797 -109.6842 236° Southwest 168 193 15,900  Level Salt Lake Center
06:16PM 44.1492 -109.7406 233° Southwest 164 189 15,900  Level Salt Lake Center
06:17PM 44.1217 -109.7944 235° Southwest 173 199 15,900  Level Salt Lake Center
06:18PM 44.0900 -109.8528 233° Southwest 171 197 15,900  Level Salt Lake Center
06:19PM 44.0636 -109.9036 234° Southwest 170 196 15,900  Level Salt Lake Center
06:20PM 44.0369 -109.9528 233° Southwest 168 193 15,900  Level Salt Lake Center
06:21PM 44.0061 -110.0114 234° Southwest 168 193 15,900 -300 Level Salt Lake Center
06:22PM 43.9783 -110.0636 234° Southwest 172 198 15,300 -540 Descending Salt Lake Center
06:23PM 43.9411 -110.1322 233° Southwest 193 222 14,900 -240 Descending Salt Lake Center
06:24PM 43.9144 -110.1817 233° Southwest 178 205 14,900  Level Salt Lake Center
06:25PM 43.8825 -110.2381 232° Southwest 169 194 15,000  Climbing Salt Lake Center
06:26PM 43.8567 -110.2856 233° Southwest 165 190 15,000  Level Salt Lake Center
06:27PM 43.8272 -110.3397 233° Southwest 162 186 15,000 -360 Level Salt Lake Center
06:28PM 43.8042 -110.3797 231° Southwest 159 183 14,300 -1,260 Descending Salt Lake Center
06:29PM 43.8006 -110.4672 267° West 179 206 12,500 -1,200 Descending Salt Lake Center
06:30PM 43.8061 -110.5294 277° West 177 204 11,900 -600 Descending Salt Lake Center